createdAt,value
2019-03-21T00:01:37.839Z,-0.10
2019-03-21T00:04:12.290Z,-0.21
2019-03-21T00:06:43.632Z,-0.27
2019-03-21T00:09:17.096Z,-0.26
2019-03-21T00:12:08.464Z,-0.25
2019-03-21T00:15:23.401Z,-0.22
2019-03-21T00:18:18.026Z,-0.19
2019-03-21T00:20:49.430Z,-0.22
2019-03-21T00:23:20.795Z,-0.25
2019-03-21T00:25:52.547Z,-0.26
2019-03-21T00:28:24.058Z,-0.28
2019-03-21T00:30:55.481Z,-0.28
2019-03-21T00:33:26.997Z,-0.34
2019-03-21T00:35:58.577Z,-0.39
2019-03-21T00:38:29.968Z,-0.30
2019-03-21T00:41:01.392Z,-0.28
2019-03-21T00:43:33.184Z,-0.27
2019-03-21T00:46:04.527Z,-0.29
2019-03-21T00:48:35.879Z,-0.32
2019-03-21T00:51:07.320Z,-0.32
2019-03-21T00:53:39.234Z,-0.33
2019-03-21T00:56:10.606Z,-0.33
2019-03-21T00:58:41.951Z,-0.32
2019-03-21T01:01:13.763Z,-0.32
2019-03-21T01:03:45.427Z,-0.34
2019-03-21T01:06:16.750Z,-0.38
2019-03-21T01:08:48.588Z,-0.37
2019-03-21T01:11:19.888Z,-0.32
2019-03-21T01:13:51.240Z,-0.33
2019-03-21T01:16:22.582Z,-0.34
2019-03-21T01:18:53.993Z,-0.36
2019-03-21T01:21:25.279Z,-0.41
2019-03-21T01:23:57.131Z,-0.38
2019-03-21T01:26:28.437Z,-0.41
2019-03-21T01:28:59.798Z,-0.42
2019-03-21T01:31:31.102Z,-0.42
2019-03-21T01:34:02.442Z,-0.42
2019-03-21T01:36:33.827Z,-0.44
2019-03-21T01:39:06.653Z,-0.46
2019-03-21T01:41:38.010Z,-0.46
2019-03-21T01:44:09.334Z,-0.45
2019-03-21T01:46:40.770Z,-0.45
2019-03-21T01:49:13.646Z,-0.44
2019-03-21T01:51:52.192Z,-0.44
2019-03-21T01:54:23.593Z,-0.44
2019-03-21T01:56:55.350Z,-0.43
2019-03-21T01:59:26.711Z,-0.45
2019-03-21T02:01:58.073Z,-0.49
2019-03-21T02:04:29.427Z,-0.55
2019-03-21T02:07:01.069Z,-0.54
2019-03-21T02:09:34.003Z,-0.50
2019-03-21T02:12:05.571Z,-0.55
2019-03-21T02:14:36.901Z,-0.60
2019-03-21T02:17:08.294Z,-0.58
2019-03-21T02:19:42.278Z,-0.57
2019-03-21T02:22:13.745Z,-0.56
2019-03-21T02:24:45.586Z,-0.61
2019-03-21T02:27:16.895Z,-0.60
2019-03-21T02:29:49.784Z,-0.63
2019-03-21T02:32:21.590Z,-0.63
2019-03-21T02:34:52.940Z,-0.67
2019-03-21T02:37:24.632Z,-0.66
2019-03-21T02:39:59.872Z,-0.67
2019-03-21T02:42:29.251Z,-0.66
2019-03-21T02:45:08.370Z,-0.72
2019-03-21T02:47:34.362Z,-0.73
2019-03-21T02:50:06.343Z,-0.75
2019-03-21T02:52:37.726Z,-0.77
2019-03-21T02:55:09.739Z,-0.78
2019-03-21T02:57:41.092Z,-0.79
2019-03-21T03:00:16.063Z,-0.81
2019-03-21T03:02:53.508Z,-0.80
2019-03-21T03:05:27.506Z,-0.79
2019-03-21T03:08:00.516Z,-0.78
2019-03-21T03:10:43.823Z,-0.79
2019-03-21T03:13:15.174Z,-0.80
2019-03-21T03:15:48.041Z,-0.84
2019-03-21T03:18:19.814Z,-0.83
2019-03-21T03:20:51.239Z,-0.90
2019-03-21T03:23:22.754Z,-0.88
2019-03-21T03:25:55.686Z,-0.87
2019-03-21T03:28:27.582Z,-0.87
2019-03-21T03:30:59.185Z,-0.85
2019-03-21T03:33:30.617Z,-0.88
2019-03-21T03:36:01.978Z,-0.89
2019-03-21T03:38:36.572Z,-0.89
2019-03-21T03:41:08.193Z,-0.89
2019-03-21T03:43:40.019Z,-0.87
2019-03-21T03:46:11.651Z,-0.88
2019-03-21T03:48:43.049Z,-0.88
2019-03-21T03:51:14.365Z,-0.87
2019-03-21T03:53:46.171Z,-0.89
2019-03-21T03:56:17.529Z,-0.90
2019-03-21T03:58:52.500Z,-0.91
2019-03-21T04:01:23.824Z,-0.88
2019-03-21T04:03:56.091Z,-0.90
2019-03-21T04:06:28.950Z,-0.93
2019-03-21T04:09:00.318Z,-0.97
2019-03-21T04:11:32.145Z,-1.00
2019-03-21T04:14:03.651Z,-1.01
2019-03-21T04:16:35.011Z,-1.02
2019-03-21T04:19:09.881Z,-1.00
2019-03-21T04:21:41.366Z,-0.99
2019-03-21T04:24:12.756Z,-1.02
2019-03-21T04:26:44.548Z,-1.03
2019-03-21T04:29:15.970Z,-1.02
2019-03-21T04:31:47.261Z,-1.01
2019-03-21T04:34:19.080Z,-1.02
2019-03-21T04:36:50.394Z,-1.04
2019-03-21T04:39:21.767Z,-1.01
2019-03-21T04:41:53.104Z,-1.06
2019-03-21T04:44:24.492Z,-1.09
2019-03-21T04:46:55.834Z,-1.08
2019-03-21T04:49:27.713Z,-1.04
2019-03-21T04:52:02.010Z,-1.05
2019-03-21T04:54:33.414Z,-1.06
2019-03-21T04:57:04.779Z,-1.05
2019-03-21T04:59:36.287Z,-1.06
2019-03-21T05:02:10.771Z,-1.08
2019-03-21T05:04:42.642Z,-1.06
2019-03-21T05:07:14.187Z,-1.09
2019-03-21T05:09:45.981Z,-1.11
2019-03-21T05:12:17.483Z,-1.12
2019-03-21T05:14:48.822Z,-1.11
2019-03-21T05:17:20.189Z,-1.10
2019-03-21T05:19:51.557Z,-1.10
2019-03-21T05:22:22.974Z,-1.13
2019-03-21T05:24:59.356Z,-1.14
2019-03-21T05:28:17.198Z,-1.11
2019-03-21T05:31:12.058Z,-1.12
2019-03-21T05:33:47.472Z,-1.09
2019-03-21T05:36:19.002Z,-1.04
2019-03-21T05:38:51.811Z,-0.98
2019-03-21T05:41:23.201Z,-0.98
2019-03-21T05:44:07.637Z,-0.94
2019-03-21T05:46:39.027Z,-0.86
2019-03-21T05:49:10.345Z,-0.83
2019-03-21T05:51:42.064Z,-0.76
2019-03-21T05:54:13.417Z,-0.70
2019-03-21T05:56:44.708Z,-0.64
2019-03-21T05:59:16.454Z,-0.57
2019-03-21T06:01:47.942Z,-0.50
2019-03-21T06:04:19.360Z,-0.42
2019-03-21T06:07:14.665Z,-0.35
2019-03-21T06:09:55.160Z,-0.26
2019-03-21T06:12:28.035Z,-0.14
2019-03-21T06:15:15.952Z,-0.06
2019-03-21T06:18:11.029Z,0.00
2019-03-21T06:20:56.528Z,0.11
2019-03-21T06:23:51.819Z,0.27
2019-03-21T06:26:43.078Z,0.50
2019-03-21T06:29:14.795Z,0.70
2019-03-21T06:31:47.490Z,0.84
2019-03-21T06:34:23.504Z,0.91
2019-03-21T06:36:55.076Z,0.98
2019-03-21T06:39:27.427Z,1.08
2019-03-21T06:41:59.148Z,1.24
2019-03-21T06:44:30.536Z,1.51
2019-03-21T06:47:02.190Z,1.70
2019-03-21T06:49:33.586Z,1.86
2019-03-21T06:52:12.140Z,2.01
2019-03-21T06:54:45.741Z,2.22
2019-03-21T06:57:18.913Z,2.42
2019-03-21T06:59:50.267Z,2.70
2019-03-21T07:02:22.594Z,2.88
2019-03-21T07:04:56.189Z,3.04
2019-03-21T07:07:27.590Z,3.22
2019-03-21T07:09:59.506Z,3.43
2019-03-21T07:12:30.903Z,3.64
2019-03-21T07:15:04.372Z,3.85
2019-03-21T07:17:35.302Z,4.04
2019-03-21T07:20:07.078Z,4.17
2019-03-21T07:22:39.266Z,4.25
2019-03-21T07:25:26.035Z,4.43
2019-03-21T07:27:57.406Z,4.60
2019-03-21T07:30:29.057Z,4.79
2019-03-21T07:33:01.066Z,5.03
2019-03-21T07:35:32.689Z,5.23
2019-03-21T07:38:07.013Z,5.43
2019-03-21T07:40:38.338Z,5.67
2019-03-21T07:43:09.704Z,5.82
2019-03-21T07:45:41.018Z,6.00
2019-03-21T07:48:17.120Z,6.23
2019-03-21T07:50:48.439Z,6.41
2019-03-21T07:53:22.153Z,6.60
2019-03-21T07:56:10.898Z,6.83
2019-03-21T07:58:47.110Z,7.01
2019-03-21T08:01:18.810Z,7.25
2019-03-21T08:03:55.348Z,7.40
2019-03-21T08:06:26.643Z,7.52
2019-03-21T08:08:59.216Z,7.58
2019-03-21T08:11:33.769Z,7.74
2019-03-21T08:14:05.117Z,7.78
2019-03-21T08:16:37.959Z,7.80
2019-03-21T08:19:10.650Z,7.86
2019-03-21T08:21:43.185Z,7.86
2019-03-21T08:24:14.785Z,7.90
2019-03-21T08:26:52.524Z,7.96
2019-03-21T08:29:24.404Z,8.06
2019-03-21T08:31:57.340Z,8.12
2019-03-21T08:34:31.626Z,8.09
2019-03-21T08:37:02.988Z,8.09
2019-03-21T08:39:34.761Z,8.05
2019-03-21T08:42:06.613Z,8.13
2019-03-21T08:44:39.718Z,8.17
2019-03-21T08:47:11.084Z,8.26
2019-03-21T08:49:42.392Z,8.30
2019-03-21T08:52:13.815Z,8.31
2019-03-21T08:54:47.977Z,8.23
2019-03-21T08:58:11.305Z,8.36
2019-03-21T09:01:15.428Z,8.46
2019-03-21T09:03:57.758Z,8.64
2019-03-21T09:06:29.476Z,8.85
2019-03-21T09:09:02.117Z,8.69
2019-03-21T09:11:34.047Z,8.81
2019-03-21T09:14:05.659Z,9.08
2019-03-21T09:16:37.455Z,9.33
2019-03-21T09:19:13.993Z,9.62
2019-03-21T09:21:48.062Z,9.71
2019-03-21T09:24:40.581Z,9.65
2019-03-21T09:27:14.462Z,9.92
2019-03-21T09:29:53.585Z,10.09
2019-03-21T09:32:19.885Z,10.56
2019-03-21T09:34:51.413Z,10.81
2019-03-21T09:37:26.273Z,11.01
2019-03-21T09:39:57.750Z,11.26
2019-03-21T09:42:29.625Z,11.56
2019-03-21T09:45:01.429Z,11.81
2019-03-21T09:47:35.597Z,12.17
2019-03-21T09:50:09.006Z,12.24
2019-03-21T09:52:43.362Z,12.20
2019-03-21T09:55:15.089Z,12.23
2019-03-21T09:57:52.026Z,12.36
2019-03-21T10:00:32.218Z,12.84
2019-03-21T10:03:03.598Z,13.21
2019-03-21T10:05:38.000Z,12.90
2019-03-21T10:08:09.362Z,13.44
2019-03-21T10:10:41.219Z,13.41
2019-03-21T10:13:20.390Z,13.95
2019-03-21T10:15:52.048Z,14.63
2019-03-21T10:18:30.628Z,15.01
2019-03-21T10:21:02.153Z,15.31
2019-03-21T10:23:33.531Z,15.49
2019-03-21T10:26:05.755Z,15.62
2019-03-21T10:28:37.181Z,15.88
2019-03-21T10:31:08.646Z,16.12
2019-03-21T10:33:40.380Z,15.96
2019-03-21T10:36:11.801Z,15.93
2019-03-21T10:38:43.195Z,16.08
2019-03-21T10:41:16.228Z,15.83
2019-03-21T10:43:51.658Z,16.14
2019-03-21T10:46:22.957Z,16.30
2019-03-21T10:48:54.810Z,16.70
2019-03-21T10:51:30.508Z,17.04
2019-03-21T10:54:01.957Z,17.06
2019-03-21T10:56:33.367Z,17.36
2019-03-21T10:59:04.661Z,17.27
2019-03-21T11:01:37.468Z,17.28
2019-03-21T11:04:12.327Z,17.27
2019-03-21T11:06:46.392Z,17.07
2019-03-21T11:09:17.757Z,16.62
2019-03-21T11:11:53.023Z,16.93
2019-03-21T11:14:24.385Z,16.96
2019-03-21T11:16:55.717Z,16.91
2019-03-21T11:19:27.548Z,17.12
2019-03-21T11:22:06.488Z,17.40
2019-03-21T11:24:47.373Z,17.98
2019-03-21T11:27:32.658Z,18.06
2019-03-21T11:30:15.403Z,17.97
2019-03-21T11:32:37.159Z,17.94
2019-03-21T11:35:08.492Z,18.14
2019-03-21T11:37:40.035Z,18.01
2019-03-21T11:40:11.556Z,17.88
2019-03-21T11:42:47.650Z,17.83
2019-03-21T11:45:20.578Z,17.46
2019-03-21T11:47:52.125Z,17.31
2019-03-21T11:50:29.930Z,17.40
2019-03-21T11:53:01.218Z,17.17
2019-03-21T11:55:35.120Z,17.40
2019-03-21T11:58:07.095Z,17.26
2019-03-21T12:00:43.730Z,17.32
2019-03-21T12:03:11.627Z,17.33
2019-03-21T12:05:45.393Z,17.52
2019-03-21T12:08:16.725Z,17.65
2019-03-21T12:10:51.047Z,17.42
2019-03-21T12:13:22.459Z,17.32
2019-03-21T12:15:54.028Z,17.43
2019-03-21T12:18:27.075Z,16.92
2019-03-21T12:20:58.449Z,16.74
2019-03-21T12:23:29.815Z,16.01
2019-03-21T12:26:04.327Z,16.06
2019-03-21T12:28:35.729Z,16.10
2019-03-21T12:31:12.337Z,16.21
2019-03-21T12:33:45.189Z,16.48
2019-03-21T12:36:16.553Z,16.23
2019-03-21T12:38:53.946Z,15.91
2019-03-21T12:41:25.846Z,15.52
2019-03-21T12:44:09.469Z,14.95
2019-03-21T12:46:42.239Z,15.13
2019-03-21T12:49:14.145Z,14.93
2019-03-21T12:51:45.986Z,15.00
2019-03-21T12:54:17.509Z,15.26
2019-03-21T12:56:49.349Z,15.07
2019-03-21T12:59:20.706Z,14.82
2019-03-21T13:01:52.298Z,14.92
2019-03-21T13:04:25.374Z,14.89
2019-03-21T13:06:59.598Z,14.70
2019-03-21T13:09:32.497Z,14.68
2019-03-21T13:12:04.813Z,14.80
2019-03-21T13:14:41.154Z,14.79
2019-03-21T13:17:16.373Z,14.60
2019-03-21T13:19:48.948Z,14.26
2019-03-21T13:22:23.723Z,14.18
2019-03-21T13:24:56.982Z,14.08
2019-03-21T13:27:31.395Z,14.07
2019-03-21T13:30:11.828Z,14.20
2019-03-21T13:33:22.625Z,14.31
2019-03-21T13:36:04.059Z,14.29
2019-03-21T13:39:28.512Z,14.34
2019-03-21T13:42:35.060Z,14.37
2019-03-21T13:45:07.131Z,14.23
2019-03-21T13:47:39.092Z,14.24
2019-03-21T13:50:12.083Z,14.33
2019-03-21T13:52:43.681Z,14.30
2019-03-21T13:55:15.519Z,14.24
2019-03-21T13:57:46.884Z,14.17
2019-03-21T14:00:20.415Z,14.17
2019-03-21T14:02:52.385Z,14.17
2019-03-21T14:05:25.513Z,14.18
2019-03-21T14:08:11.255Z,14.18
2019-03-21T14:10:49.462Z,14.13
2019-03-21T14:13:20.845Z,14.15
2019-03-21T14:15:52.521Z,14.13
2019-03-21T14:18:25.678Z,14.16
2019-03-21T14:20:57.353Z,14.13
2019-03-21T14:23:42.491Z,14.09
2019-03-21T14:26:03.763Z,14.13
2019-03-21T14:28:46.021Z,14.19
2019-03-21T14:31:17.397Z,14.18
2019-03-21T14:33:48.999Z,14.15
2019-03-21T14:36:20.378Z,14.19
2019-03-21T14:39:07.263Z,14.24
2019-03-21T14:41:41.570Z,14.31
2019-03-21T14:44:16.162Z,14.41
2019-03-21T14:46:48.276Z,14.46
2019-03-21T14:49:20.706Z,14.54
2019-03-21T14:51:52.316Z,14.65
2019-03-21T14:54:27.360Z,14.73
2019-03-21T14:57:00.974Z,14.72
2019-03-21T14:59:33.353Z,14.74
2019-03-21T15:02:04.737Z,14.67
2019-03-21T15:04:38.067Z,14.59
2019-03-21T15:07:11.692Z,14.62
2019-03-21T15:09:43.548Z,14.67
2019-03-21T15:12:15.063Z,14.59
2019-03-21T15:14:48.635Z,14.58
2019-03-21T15:17:22.092Z,14.54
2019-03-21T15:20:01.790Z,14.54
2019-03-21T15:22:38.662Z,14.43
2019-03-21T15:25:11.396Z,14.39
2019-03-21T15:27:43.220Z,14.36
2019-03-21T15:30:18.533Z,14.30
2019-03-21T15:32:51.589Z,14.28
2019-03-21T15:35:23.747Z,14.26
2019-03-21T15:37:55.507Z,14.13
2019-03-21T15:40:27.024Z,14.05
2019-03-21T15:43:02.742Z,13.95
2019-03-21T15:45:34.688Z,13.90
2019-03-21T15:48:06.268Z,13.87
2019-03-21T15:50:42.474Z,13.78
2019-03-21T15:53:35.761Z,13.65
2019-03-21T15:56:09.573Z,13.55
2019-03-21T15:58:53.886Z,13.45
2019-03-21T16:01:32.283Z,13.35
2019-03-21T16:04:07.591Z,13.23
2019-03-21T16:06:46.601Z,13.14
2019-03-21T16:09:18.178Z,13.14
2019-03-21T16:12:01.548Z,12.99
2019-03-21T16:14:45.305Z,12.85
2019-03-21T16:17:18.517Z,12.78
2019-03-21T16:19:57.963Z,12.80
2019-03-21T16:22:31.813Z,12.69
2019-03-21T16:25:03.578Z,12.54
2019-03-21T16:27:40.713Z,12.40
2019-03-21T16:30:18.146Z,12.34
2019-03-21T16:33:13.884Z,12.19
2019-03-21T16:35:52.890Z,11.94
2019-03-21T16:38:25.210Z,11.60
2019-03-21T16:41:00.025Z,11.36
2019-03-21T16:43:33.212Z,11.16
2019-03-21T16:46:05.234Z,10.94
2019-03-21T16:48:40.237Z,10.78
2019-03-21T16:51:13.594Z,10.63
2019-03-21T16:53:57.464Z,10.52
2019-03-21T16:56:34.860Z,10.35
2019-03-21T16:59:08.501Z,10.18
2019-03-21T17:01:40.279Z,10.07
2019-03-21T17:04:13.500Z,9.98
2019-03-21T17:06:44.832Z,9.90
2019-03-21T17:09:16.232Z,9.81
2019-03-21T17:12:01.328Z,9.72
2019-03-21T17:14:38.008Z,9.61
2019-03-21T17:17:12.767Z,9.50
2019-03-21T17:19:45.535Z,9.39
2019-03-21T17:22:17.172Z,9.31
2019-03-21T17:24:48.894Z,9.20
2019-03-21T17:27:20.602Z,9.11
2019-03-21T17:29:52.111Z,8.99
2019-03-21T17:32:25.437Z,8.93
2019-03-21T17:35:01.252Z,8.83
2019-03-21T17:37:34.196Z,8.77
2019-03-21T17:40:10.631Z,8.63
2019-03-21T17:42:53.460Z,8.51
2019-03-21T17:45:26.829Z,8.43
2019-03-21T17:48:02.022Z,8.37
2019-03-21T17:50:33.760Z,8.27
2019-03-21T17:53:05.169Z,8.18
2019-03-21T17:55:40.558Z,8.14
2019-03-21T17:58:29.741Z,8.06
2019-03-21T18:01:09.902Z,8.02
2019-03-21T18:04:09.634Z,7.97
2019-03-21T18:06:46.797Z,7.90
2019-03-21T18:09:22.086Z,7.78
2019-03-21T18:11:56.681Z,7.74
2019-03-21T18:14:35.943Z,7.67
2019-03-21T18:17:12.702Z,7.63
2019-03-21T18:19:50.708Z,7.56
2019-03-21T18:22:23.018Z,7.51
2019-03-21T18:24:54.649Z,7.44
2019-03-21T18:27:27.443Z,7.39
2019-03-21T18:30:02.416Z,7.35
2019-03-21T18:32:39.158Z,7.28
2019-03-21T18:35:10.577Z,7.19
2019-03-21T18:37:46.929Z,7.07
2019-03-21T18:40:21.130Z,7.04
2019-03-21T18:42:53.788Z,6.99
2019-03-21T18:45:27.598Z,6.94
2019-03-21T18:47:59.119Z,6.84
2019-03-21T18:50:34.090Z,6.79
2019-03-21T18:53:06.163Z,6.74
2019-03-21T18:55:37.828Z,6.74
2019-03-21T18:58:13.930Z,6.68
2019-03-21T19:00:45.608Z,6.58
2019-03-21T19:03:17.278Z,6.48
2019-03-21T19:05:55.442Z,6.38
2019-03-21T19:08:28.910Z,6.30
2019-03-21T19:11:01.354Z,6.22
2019-03-21T19:13:34.750Z,6.13
2019-03-21T19:16:11.955Z,6.12
2019-03-21T19:18:46.079Z,6.07
2019-03-21T19:21:19.341Z,6.05
2019-03-21T19:23:59.082Z,6.04
2019-03-21T19:26:30.853Z,6.00
2019-03-21T19:29:06.152Z,5.94
2019-03-21T19:31:40.501Z,5.88
2019-03-21T19:34:16.629Z,5.80
2019-03-21T19:36:48.186Z,5.74
2019-03-21T19:39:23.436Z,5.69
2019-03-21T19:41:55.332Z,5.60
2019-03-21T19:44:35.091Z,5.56
2019-03-21T19:47:09.653Z,5.49
2019-03-21T19:49:41.239Z,5.42
2019-03-21T19:52:14.602Z,5.37
2019-03-21T19:54:50.020Z,5.36
2019-03-21T19:57:22.689Z,5.31
2019-03-21T20:00:10.308Z,5.24
2019-03-21T20:02:49.266Z,5.17
2019-03-21T20:05:33.018Z,5.10
2019-03-21T20:08:04.480Z,5.06
2019-03-21T20:10:36.775Z,5.02
2019-03-21T20:13:08.771Z,4.97
2019-03-21T20:15:40.248Z,4.89
2019-03-21T20:18:14.819Z,4.86
2019-03-21T20:20:49.432Z,4.81
2019-03-21T20:23:21.077Z,4.74
2019-03-21T20:25:57.629Z,4.69
2019-03-21T20:28:26.197Z,4.64
2019-03-21T20:30:58.082Z,4.57
2019-03-21T20:33:30.083Z,4.55
2019-03-21T20:36:01.666Z,4.58
2019-03-21T20:38:33.160Z,4.56
2019-03-21T20:41:06.899Z,4.48
2019-03-21T20:43:38.570Z,4.43
2019-03-21T20:46:09.903Z,4.39
2019-03-21T20:48:39.181Z,4.35
2019-03-21T20:51:15.817Z,4.30
2019-03-21T20:53:53.439Z,4.26
2019-03-21T20:56:24.810Z,4.25
2019-03-21T20:58:59.512Z,4.26
2019-03-21T21:01:30.860Z,4.23
2019-03-21T21:04:04.309Z,4.19
2019-03-21T21:06:37.566Z,4.12
2019-03-21T21:09:12.595Z,4.05
2019-03-21T21:11:47.622Z,4.03
2019-03-21T21:14:18.971Z,4.01
2019-03-21T21:16:50.491Z,3.97
2019-03-21T21:19:21.889Z,3.98
2019-03-21T21:22:03.317Z,3.94
2019-03-21T21:24:41.684Z,3.92
2019-03-21T21:27:15.297Z,3.90
2019-03-21T21:29:46.638Z,3.88
2019-03-21T21:32:20.964Z,3.86
2019-03-21T21:34:54.578Z,3.85
2019-03-21T21:37:25.965Z,3.81
2019-03-21T21:39:57.820Z,3.79
2019-03-21T21:42:29.326Z,3.77
2019-03-21T21:45:16.265Z,3.77
2019-03-21T21:47:53.280Z,3.79
2019-03-21T21:50:28.083Z,3.75
2019-03-21T21:53:03.857Z,3.72
2019-03-21T21:55:44.880Z,3.68
2019-03-21T21:58:22.232Z,3.64
2019-03-21T22:00:55.753Z,3.58
2019-03-21T22:03:30.773Z,3.57
2019-03-21T22:06:02.147Z,3.55
2019-03-21T22:08:36.533Z,3.51
2019-03-21T22:11:08.451Z,3.50
2019-03-21T22:13:39.845Z,3.47
2019-03-21T22:16:11.675Z,3.48
2019-03-21T22:18:46.313Z,3.47
2019-03-21T22:21:17.754Z,3.46
2019-03-21T22:23:51.735Z,3.50
2019-03-21T22:26:29.589Z,3.47
2019-03-21T22:28:57.313Z,3.44
2019-03-21T22:31:28.999Z,3.41
2019-03-21T22:34:00.754Z,3.39
2019-03-21T22:36:49.257Z,3.34
2019-03-21T22:39:21.124Z,3.32
2019-03-21T22:41:52.477Z,3.29
2019-03-21T22:44:24.499Z,3.28
2019-03-21T22:46:58.469Z,3.26
2019-03-21T22:49:33.388Z,3.23
2019-03-21T22:52:08.057Z,3.18
2019-03-21T22:54:43.079Z,3.13
2019-03-21T22:57:18.141Z,3.10
2019-03-21T22:59:52.041Z,3.09
2019-03-21T23:02:24.538Z,3.06
2019-03-21T23:04:55.918Z,3.07
2019-03-21T23:07:36.180Z,3.03
2019-03-21T23:10:07.716Z,3.01
2019-03-21T23:12:39.290Z,2.98
2019-03-21T23:15:11.476Z,2.95
2019-03-21T23:17:43.948Z,2.92
2019-03-21T23:20:15.763Z,2.90
2019-03-21T23:22:48.426Z,2.89
2019-03-21T23:25:20.249Z,2.85
2019-03-21T23:27:51.643Z,2.82
2019-03-21T23:30:23.308Z,2.81
2019-03-21T23:32:59.712Z,2.77
2019-03-21T23:35:35.031Z,2.69
2019-03-21T23:38:06.432Z,2.67
2019-03-21T23:40:38.326Z,2.68
2019-03-21T23:43:11.723Z,2.66
2019-03-21T23:45:44.413Z,2.67
2019-03-21T23:48:15.916Z,2.63
2019-03-21T23:50:53.484Z,2.62
2019-03-21T23:53:29.116Z,2.63
2019-03-21T23:56:00.535Z,2.59
2019-03-21T23:58:32.229Z,2.57
